ENRA/MQN METAR and TAF weather

Enter ICAO airport designator
Station Type Date Time Source
ENRA METAR 2018/04/26 14:50 UTC NOAA

ENRA 261450Z 25005KT 9999 FEW040 BKN060 06/M03 Q0999


Station Type Date Time Source
ENRA Decoded METAR 2018/04/26 14:50 UTC NOAA

Mo I Rana / Rossvoll, Norway (ENRA) 66-22N 014-18E 70M
Apr 26, 2018 - 10:50 AM EDT / 2018.04.26 1450 UTC
Wind: from the WSW (250 degrees) at 6 MPH (5 KT):0
Visibility: greater than 7 mile(s):0
Sky conditions: mostly cloudy
Temperature: 42 F (6 C)
Dew Point: 26 F (-3 C)
Relative Humidity: 52%
Pressure (altimeter): 29.50 in. Hg (0999 hPa)
ob: ENRA 261450Z 25005KT 9999 FEW040 BKN060 06/M03 Q0999
cycle: 15

Station Type Date Time Source
ENRA TAF UTC NOAA

Error!


Example: see airport list